createdAt,value
2022-09-18T00:00:56.285Z,82.7
2022-09-18T00:05:54.487Z,81.7
2022-09-18T00:10:52.708Z,82.4
2022-09-18T00:15:50.886Z,82.7
2022-09-18T00:20:48.694Z,84
2022-09-18T00:25:46.847Z,83.5
2022-09-18T00:30:44.970Z,82.3
2022-09-18T00:35:43.378Z,83.3
2022-09-18T00:40:41.311Z,83.7
2022-09-18T00:45:39.474Z,83.6
2022-09-18T00:50:37.804Z,83.1
2022-09-18T00:55:36.097Z,83.1
2022-09-18T01:00:33.859Z,88
2022-09-18T01:05:31.343Z,93.8
2022-09-18T01:10:29.188Z,97
2022-09-18T01:15:27.143Z,98.3
2022-09-18T01:20:24.818Z,100
2022-09-18T01:25:22.975Z,100
2022-09-18T01:30:21.458Z,100
2022-09-18T01:35:39.821Z,100
2022-09-18T01:40:17.870Z,99.6
2022-09-18T01:45:15.652Z,97.7
2022-09-18T01:50:13.455Z,97.9
2022-09-18T01:55:11.509Z,96.9
2022-09-18T02:00:09.319Z,96.8
2022-09-18T02:05:07.202Z,97.1
2022-09-18T02:10:05.146Z,96.8
2022-09-18T02:15:03.222Z,95.6
2022-09-18T02:20:00.671Z,94.6
2022-09-18T02:24:58.632Z,95
2022-09-18T02:29:56.535Z,96.4
2022-09-18T02:34:54.485Z,98.1
2022-09-18T02:39:52.212Z,99.6
2022-09-18T02:44:49.978Z,100
2022-09-18T02:49:48.025Z,99.6
2022-09-18T02:54:46.219Z,98.6
2022-09-18T02:59:44.200Z,97.8
2022-09-18T03:04:42.132Z,98.6
2022-09-18T03:09:40.172Z,98.1
2022-09-18T03:14:38.285Z,96.5
2022-09-18T03:19:36.351Z,97
2022-09-18T03:24:34.549Z,97
2022-09-18T03:29:32.278Z,98.2
2022-09-18T03:34:30.241Z,98.1
2022-09-18T03:39:28.044Z,99.8
2022-09-18T03:44:25.985Z,100
2022-09-18T03:49:24.055Z,100
2022-09-18T03:54:22.278Z,99.3
2022-09-18T03:59:20.564Z,99.4
2022-09-18T04:04:18.846Z,98.1
2022-09-18T04:09:17.126Z,99.8
2022-09-18T04:14:15.359Z,98.3
2022-09-18T04:19:13.393Z,98.2
2022-09-18T04:24:15.109Z,98.4
2022-09-18T04:29:12.344Z,99
2022-09-18T04:34:10.576Z,98.5
2022-09-18T04:39:08.762Z,98.9
2022-09-18T04:44:06.992Z,100
2022-09-18T04:49:05.099Z,96.9
2022-09-18T04:54:03.282Z,97.9
2022-09-18T04:59:01.332Z,96.2
2022-09-18T05:03:59.223Z,93.1
2022-09-18T05:08:57.069Z,91.6
2022-09-18T05:13:55.353Z,90.8
2022-09-18T05:18:53.491Z,88
2022-09-18T05:23:51.856Z,88.7
2022-09-18T05:28:50.386Z,87.3
2022-09-18T05:33:52.182Z,88.9
2022-09-18T05:38:50.018Z,86.5
2022-09-18T05:43:48.467Z,85.3
2022-09-18T05:48:46.566Z,84.5
2022-09-18T05:53:45.139Z,81
2022-09-18T05:58:43.499Z,79.2
2022-09-18T06:03:42.118Z,78.4
2022-09-18T06:08:40.705Z,77
2022-09-18T06:13:38.675Z,76.5
2022-09-18T06:18:36.267Z,77.4
2022-09-18T06:23:34.652Z,77.4
2022-09-18T06:28:32.762Z,78.1
2022-09-18T06:33:32.279Z,70.7
2022-09-18T06:38:29.520Z,73.7
2022-09-18T06:43:27.216Z,75.5
2022-09-18T06:48:25.846Z,72.7
2022-09-18T06:53:27.927Z,59
2022-09-18T06:58:27.375Z,52
2022-09-18T07:03:24.295Z,57.2
2022-09-18T07:08:21.083Z,63.3
2022-09-18T07:13:18.608Z,65.1
2022-09-18T07:18:16.783Z,66
2022-09-18T07:23:15.401Z,62
2022-09-18T07:28:13.779Z,62.5
2022-09-18T07:33:14.779Z,53.2
2022-09-18T07:38:16.941Z,48
2022-09-18T07:43:19.064Z,42.4
2022-09-18T07:48:15.766Z,44.9
2022-09-18T07:53:11.116Z,49.8
2022-09-18T07:58:08.245Z,52.2
2022-09-18T08:03:06.374Z,54.9
2022-09-18T08:08:03.058Z,56.8
2022-09-18T08:13:01.348Z,56.2
2022-09-18T08:17:59.704Z,55.7
2022-09-18T08:22:59.091Z,50.8
2022-09-18T08:27:58.589Z,48.4
2022-09-18T08:32:59.444Z,44.2
2022-09-18T08:37:56.913Z,45.5
2022-09-18T08:42:57.426Z,38.1
2022-09-18T08:47:56.851Z,38.8
2022-09-18T08:52:53.469Z,35.2
2022-09-18T08:57:54.355Z,38.8
2022-09-18T09:02:49.566Z,39.9
2022-09-18T09:07:46.037Z,43.7
2022-09-18T09:12:42.686Z,46.2
2022-09-18T09:17:39.812Z,47.9
2022-09-18T09:22:37.580Z,46.3
2022-09-18T09:27:36.541Z,45.8
2022-09-18T09:32:36.024Z,43.8
2022-09-18T09:37:33.945Z,48.4
2022-09-18T09:42:31.697Z,47.7
2022-09-18T09:47:30.332Z,49.1
2022-09-18T09:52:28.957Z,49.7
2022-09-18T09:57:28.577Z,50.4
2022-09-18T10:02:26.976Z,48.9
2022-09-18T10:07:27.496Z,43.2
2022-09-18T10:12:31.722Z,35.9
2022-09-18T10:17:29.197Z,37.1
2022-09-18T10:22:23.333Z,47.4
2022-09-18T10:27:24.509Z,41.4
2022-09-18T10:32:22.998Z,38
2022-09-18T10:37:24.152Z,34.5
2022-09-18T10:42:24.102Z,35
2022-09-18T10:47:17.999Z,42.5
2022-09-18T10:52:13.068Z,46.7
2022-09-18T10:57:10.193Z,47.6
2022-09-18T11:02:07.931Z,48.4
2022-09-18T11:07:05.973Z,48.7
2022-09-18T11:12:04.755Z,46.8
2022-09-18T11:17:02.581Z,49.2
2022-09-18T11:22:01.466Z,46.9
2022-09-18T11:27:02.647Z,42.8
2022-09-18T11:32:00.368Z,45.3
2022-09-18T11:36:57.063Z,47.3
2022-09-18T11:41:55.431Z,46.3
2022-09-18T11:46:53.212Z,48.8
2022-09-18T11:51:50.246Z,51.2
2022-09-18T11:56:48.004Z,49.9
2022-09-18T12:01:46.444Z,48.8
2022-09-18T12:06:44.741Z,49.9
2022-09-18T12:11:41.272Z,52
2022-09-18T12:16:39.693Z,53.6
2022-09-18T12:21:37.439Z,52.7
2022-09-18T12:26:36.143Z,48.9
2022-09-18T12:31:34.218Z,51.5
2022-09-18T12:36:30.937Z,53.4
2022-09-18T12:41:28.684Z,58.1
2022-09-18T12:46:26.624Z,58.8
2022-09-18T12:51:24.945Z,58.5
2022-09-18T12:56:22.629Z,56.7
2022-09-18T13:01:21.190Z,56.8
2022-09-18T13:06:19.372Z,57.2
2022-09-18T13:11:17.943Z,52.3
2022-09-18T13:16:17.412Z,53.4
2022-09-18T13:21:15.090Z,56.1
2022-09-18T13:26:12.575Z,59.7
2022-09-18T13:31:10.412Z,59.6
2022-09-18T13:36:08.755Z,58.2
2022-09-18T13:41:07.307Z,58.8
2022-09-18T13:46:07.483Z,56.9
2022-09-18T13:51:05.600Z,57
2022-09-18T13:56:03.987Z,55.4
2022-09-18T14:01:05.803Z,55.8
2022-09-18T14:06:03.898Z,57.3
2022-09-18T14:11:16.532Z,58.1
2022-09-18T14:15:59.482Z,58.9
2022-09-18T14:20:57.891Z,56.8
2022-09-18T14:25:55.769Z,56.4
2022-09-18T14:30:53.632Z,55.2
2022-09-18T14:35:51.160Z,58.4
2022-09-18T14:40:49.036Z,61.8
2022-09-18T14:45:46.823Z,63.8
2022-09-18T14:50:44.694Z,67.7
2022-09-18T14:55:42.295Z,70
2022-09-18T15:00:39.717Z,76.9
2022-09-18T15:05:37.427Z,79.4
2022-09-18T15:10:35.265Z,82.5
2022-09-18T15:15:32.963Z,81.3
2022-09-18T15:20:31.022Z,80.3
2022-09-18T15:25:30.629Z,76.2
2022-09-18T15:30:29.036Z,75.5
2022-09-18T15:35:27.102Z,77.7
2022-09-18T15:40:25.305Z,77.1
2022-09-18T15:45:23.352Z,76.7
2022-09-18T15:50:21.373Z,80.6
2022-09-18T15:55:19.379Z,84.8
2022-09-18T16:00:16.705Z,85.6
2022-09-18T16:05:14.825Z,86
2022-09-18T16:10:13.364Z,85.8
2022-09-18T16:15:11.369Z,87.6
2022-09-18T16:20:09.321Z,89.5
2022-09-18T16:25:07.107Z,90.4
2022-09-18T16:30:04.890Z,92.7
2022-09-18T16:35:02.383Z,95.9
2022-09-18T16:40:00.273Z,97.5
2022-09-18T16:44:57.978Z,99
2022-09-18T16:49:56.131Z,98.8
2022-09-18T16:54:53.837Z,100
2022-09-18T16:59:51.644Z,99.9
2022-09-18T17:04:49.654Z,100
2022-09-18T17:09:47.719Z,100
2022-09-18T17:14:45.792Z,100
2022-09-18T17:19:43.808Z,100
2022-09-18T17:24:41.892Z,100
2022-09-18T17:29:39.998Z,100
2022-09-18T17:34:38.136Z,100
2022-09-18T17:39:36.067Z,100
2022-09-18T17:44:33.993Z,100
2022-09-18T17:49:31.806Z,100
2022-09-18T17:54:29.773Z,100
2022-09-18T17:59:28.141Z,100
2022-09-18T18:04:26.298Z,100
2022-09-18T18:09:24.658Z,100
2022-09-18T18:14:22.717Z,100
2022-09-18T18:19:21.005Z,100
2022-09-18T18:24:19.071Z,100
2022-09-18T18:29:17.239Z,100
2022-09-18T18:34:15.414Z,100
2022-09-18T18:39:13.736Z,100
2022-09-18T18:44:12.100Z,100
2022-09-18T18:49:10.489Z,100
2022-09-18T18:54:09.053Z,100
2022-09-18T18:59:07.160Z,100
2022-09-18T19:04:05.458Z,100
2022-09-18T19:09:03.741Z,100
2022-09-18T19:14:01.931Z,100
2022-09-18T19:19:00.035Z,100
2022-09-18T19:23:58.397Z,100
2022-09-18T19:28:56.984Z,100
2022-09-18T19:33:55.127Z,100
2022-09-18T19:38:53.094Z,100
2022-09-18T19:43:51.309Z,100
2022-09-18T19:48:49.664Z,100
2022-09-18T19:58:46.131Z,100
2022-09-18T20:03:44.329Z,100
2022-09-18T20:08:42.534Z,100
2022-09-18T20:13:40.646Z,100
2022-09-18T20:18:38.753Z,100
2022-09-18T20:23:37.003Z,100
2022-09-18T20:28:35.003Z,100
2022-09-18T20:33:33.157Z,100
2022-09-18T20:38:31.303Z,100
2022-09-18T20:43:29.420Z,100
2022-09-18T20:48:27.493Z,100
2022-09-18T20:53:25.606Z,100
2022-09-18T20:58:23.831Z,100
2022-09-18T21:03:22.177Z,100
2022-09-18T21:08:20.599Z,100
2022-09-18T21:13:18.738Z,100
2022-09-18T21:18:16.724Z,100
2022-09-18T21:23:14.983Z,100
2022-09-18T21:28:13.324Z,100
2022-09-18T21:33:11.425Z,100
2022-09-18T21:38:12.737Z,100
2022-09-18T21:43:11.194Z,100
2022-09-18T21:48:08.752Z,100
2022-09-18T21:53:06.737Z,100
2022-09-18T21:58:04.711Z,100
2022-09-18T22:03:02.792Z,100
2022-09-18T22:08:00.714Z,100
2022-09-18T22:12:58.811Z,100
2022-09-18T22:17:56.905Z,100
2022-09-18T22:22:55.046Z,100
2022-09-18T22:27:53.414Z,100
2022-09-18T22:32:51.360Z,100
2022-09-18T22:37:49.562Z,100
2022-09-18T22:42:47.714Z,100
2022-09-18T22:47:45.934Z,100
2022-09-18T22:52:44.452Z,100
2022-09-18T22:57:42.417Z,100
2022-09-18T23:02:40.637Z,100
2022-09-18T23:07:38.950Z,100
2022-09-18T23:12:36.972Z,100
2022-09-18T23:17:35.165Z,100
2022-09-18T23:22:33.287Z,100
2022-09-18T23:27:31.424Z,100
2022-09-18T23:32:29.416Z,100
2022-09-18T23:37:27.477Z,100
2022-09-18T23:42:25.681Z,100
2022-09-18T23:47:24.026Z,100
2022-09-18T23:52:22.192Z,100
2022-09-18T23:57:20.096Z,100
